sensor_id;sensor_type;location;lat;lon;timestamp;P1;durP1;ratioP1;P2;durP2;ratioP2
17852;SDS011;9052;53.494;14.376;2024-03-02T00:00:48;166.00;;;77.60;;
17852;SDS011;9052;53.494;14.376;2024-03-02T00:03:16;124.53;;;65.20;;
17852;SDS011;9052;53.494;14.376;2024-03-02T00:05:46;155.17;;;79.13;;
17852;SDS011;9052;53.494;14.376;2024-03-02T00:08:17;150.30;;;76.67;;
17852;SDS011;9052;53.494;14.376;2024-03-02T00:10:50;147.67;;;75.40;;
17852;SDS011;9052;53.494;14.376;2024-03-02T00:13:20;139.27;;;71.30;;
17852;SDS011;9052;53.494;14.376;2024-03-02T00:15:50;145.03;;;77.57;;
17852;SDS011;9052;53.494;14.376;2024-03-02T00:18:19;159.83;;;73.37;;
17852;SDS011;9052;53.494;14.376;2024-03-02T00:20:48;147.03;;;70.60;;
17852;SDS011;9052;53.494;14.376;2024-03-02T00:23:15;134.63;;;72.87;;
17852;SDS011;9052;53.494;14.376;2024-03-02T00:25:44;141.87;;;75.23;;
17852;SDS011;9052;53.494;14.376;2024-03-02T00:28:16;126.73;;;68.50;;
17852;SDS011;9052;53.494;14.376;2024-03-02T00:33:33;130.10;;;72.70;;
17852;SDS011;9052;53.494;14.376;2024-03-02T00:36:03;148.73;;;73.87;;
17852;SDS011;9052;53.494;14.376;2024-03-02T00:38:30;149.97;;;78.70;;
17852;SDS011;9052;53.494;14.376;2024-03-02T00:40:58;160.10;;;72.53;;
17852;SDS011;9052;53.494;14.376;2024-03-02T00:46:19;184.13;;;83.20;;
17852;SDS011;9052;53.494;14.376;2024-03-02T00:48:51;157.27;;;77.97;;
17852;SDS011;9052;53.494;14.376;2024-03-02T00:51:21;161.17;;;80.27;;
17852;SDS011;9052;53.494;14.376;2024-03-02T00:53:49;158.37;;;85.33;;
17852;SDS011;9052;53.494;14.376;2024-03-02T00:56:16;177.07;;;83.17;;
17852;SDS011;9052;53.494;14.376;2024-03-02T00:58:43;173.23;;;84.30;;
17852;SDS011;9052;53.494;14.376;2024-03-02T01:01:10;151.90;;;81.20;;
17852;SDS011;9052;53.494;14.376;2024-03-02T01:03:37;165.53;;;85.40;;
17852;SDS011;9052;53.494;14.376;2024-03-02T01:06:04;210.83;;;86.03;;
17852;SDS011;9052;53.494;14.376;2024-03-02T01:08:34;167.07;;;82.70;;
17852;SDS011;9052;53.494;14.376;2024-03-02T01:11:01;152.50;;;84.07;;
17852;SDS011;9052;53.494;14.376;2024-03-02T01:13:28;164.77;;;83.57;;
17852;SDS011;9052;53.494;14.376;2024-03-02T01:15:56;176.63;;;83.23;;
17852;SDS011;9052;53.494;14.376;2024-03-02T01:18:23;179.83;;;83.90;;
17852;SDS011;9052;53.494;14.376;2024-03-02T01:20:50;164.60;;;82.17;;
17852;SDS011;9052;53.494;14.376;2024-03-02T01:23:18;179.50;;;80.33;;
17852;SDS011;9052;53.494;14.376;2024-03-02T01:25:47;168.93;;;83.93;;
17852;SDS011;9052;53.494;14.376;2024-03-02T01:28:14;155.03;;;80.47;;
17852;SDS011;9052;53.494;14.376;2024-03-02T01:30:41;158.37;;;79.63;;
17852;SDS011;9052;53.494;14.376;2024-03-02T01:33:08;167.27;;;84.97;;
17852;SDS011;9052;53.494;14.376;2024-03-02T01:35:36;171.13;;;80.70;;
17852;SDS011;9052;53.494;14.376;2024-03-02T01:38:03;167.87;;;79.77;;
17852;SDS011;9052;53.494;14.376;2024-03-02T01:40:31;137.07;;;76.10;;
17852;SDS011;9052;53.494;14.376;2024-03-02T01:43:00;171.07;;;78.50;;
17852;SDS011;9052;53.494;14.376;2024-03-02T01:45:27;135.07;;;75.90;;
17852;SDS011;9052;53.494;14.376;2024-03-02T01:47:54;151.00;;;78.33;;
17852;SDS011;9052;53.494;14.376;2024-03-02T01:50:25;163.20;;;80.00;;
17852;SDS011;9052;53.494;14.376;2024-03-02T01:52:53;158.63;;;79.73;;
17852;SDS011;9052;53.494;14.376;2024-03-02T01:55:20;145.30;;;75.37;;
17852;SDS011;9052;53.494;14.376;2024-03-02T01:57:47;139.33;;;74.97;;
17852;SDS011;9052;53.494;14.376;2024-03-02T02:00:17;143.87;;;74.20;;
17852;SDS011;9052;53.494;14.376;2024-03-02T02:02:45;135.57;;;68.50;;
17852;SDS011;9052;53.494;14.376;2024-03-02T02:05:12;133.07;;;74.47;;
17852;SDS011;9052;53.494;14.376;2024-03-02T02:07:40;161.27;;;74.93;;
17852;SDS011;9052;53.494;14.376;2024-03-02T02:10:07;152.83;;;78.40;;
17852;SDS011;9052;53.494;14.376;2024-03-02T02:12:34;150.37;;;78.10;;
17852;SDS011;9052;53.494;14.376;2024-03-02T02:15:02;144.03;;;78.27;;
17852;SDS011;9052;53.494;14.376;2024-03-02T02:17:30;175.03;;;82.23;;
17852;SDS011;9052;53.494;14.376;2024-03-02T02:19:57;182.30;;;79.70;;
17852;SDS011;9052;53.494;14.376;2024-03-02T02:22:26;146.47;;;75.23;;
17852;SDS011;9052;53.494;14.376;2024-03-02T02:24:53;149.57;;;81.87;;
17852;SDS011;9052;53.494;14.376;2024-03-02T02:27:20;157.83;;;76.00;;
17852;SDS011;9052;53.494;14.376;2024-03-02T02:29:46;155.63;;;78.07;;
17852;SDS011;9052;53.494;14.376;2024-03-02T02:32:14;139.60;;;71.03;;
17852;SDS011;9052;53.494;14.376;2024-03-02T02:34:41;131.47;;;74.03;;
17852;SDS011;9052;53.494;14.376;2024-03-02T02:37:08;149.17;;;76.37;;
17852;SDS011;9052;53.494;14.376;2024-03-02T02:39:36;136.87;;;72.57;;
17852;SDS011;9052;53.494;14.376;2024-03-02T02:42:03;147.73;;;76.90;;
17852;SDS011;9052;53.494;14.376;2024-03-02T02:44:31;149.83;;;71.17;;
17852;SDS011;9052;53.494;14.376;2024-03-02T02:46:58;143.03;;;72.07;;
17852;SDS011;9052;53.494;14.376;2024-03-02T02:49:25;140.87;;;68.60;;
17852;SDS011;9052;53.494;14.376;2024-03-02T02:51:52;136.23;;;72.77;;
17852;SDS011;9052;53.494;14.376;2024-03-02T02:54:19;120.87;;;62.77;;
17852;SDS011;9052;53.494;14.376;2024-03-02T02:56:47;150.10;;;73.30;;
17852;SDS011;9052;53.494;14.376;2024-03-02T02:59:15;136.43;;;69.60;;
17852;SDS011;9052;53.494;14.376;2024-03-02T03:01:42;117.40;;;69.17;;
17852;SDS011;9052;53.494;14.376;2024-03-02T03:04:09;136.20;;;68.03;;
17852;SDS011;9052;53.494;14.376;2024-03-02T03:06:36;137.60;;;70.90;;
17852;SDS011;9052;53.494;14.376;2024-03-02T03:09:03;107.03;;;62.87;;
17852;SDS011;9052;53.494;14.376;2024-03-02T03:11:30;128.63;;;65.10;;
17852;SDS011;9052;53.494;14.376;2024-03-02T03:13:59;129.23;;;63.73;;
17852;SDS011;9052;53.494;14.376;2024-03-02T03:16:26;126.23;;;63.40;;
17852;SDS011;9052;53.494;14.376;2024-03-02T03:18:52;140.80;;;65.87;;
17852;SDS011;9052;53.494;14.376;2024-03-02T03:21:19;114.90;;;61.60;;
17852;SDS011;9052;53.494;14.376;2024-03-02T03:23:46;108.93;;;60.07;;
17852;SDS011;9052;53.494;14.376;2024-03-02T03:26:13;108.10;;;57.07;;
17852;SDS011;9052;53.494;14.376;2024-03-02T03:28:40;127.30;;;62.83;;
17852;SDS011;9052;53.494;14.376;2024-03-02T03:31:09;108.50;;;60.70;;
17852;SDS011;9052;53.494;14.376;2024-03-02T03:33:36;118.03;;;65.07;;
17852;SDS011;9052;53.494;14.376;2024-03-02T03:36:03;116.93;;;60.20;;
17852;SDS011;9052;53.494;14.376;2024-03-02T03:38:30;124.03;;;64.60;;
17852;SDS011;9052;53.494;14.376;2024-03-02T03:40:57;104.93;;;57.37;;
17852;SDS011;9052;53.494;14.376;2024-03-02T03:43:24;119.47;;;58.07;;
17852;SDS011;9052;53.494;14.376;2024-03-02T03:45:51;113.17;;;58.67;;
17852;SDS011;9052;53.494;14.376;2024-03-02T03:48:20;96.27;;;56.60;;
17852;SDS011;9052;53.494;14.376;2024-03-02T03:50:47;94.93;;;57.63;;
17852;SDS011;9052;53.494;14.376;2024-03-02T03:53:14;113.53;;;58.50;;
17852;SDS011;9052;53.494;14.376;2024-03-02T03:55:41;104.67;;;56.47;;
17852;SDS011;9052;53.494;14.376;2024-03-02T03:58:08;98.43;;;59.07;;
17852;SDS011;9052;53.494;14.376;2024-03-02T04:00:35;116.30;;;59.90;;
17852;SDS011;9052;53.494;14.376;2024-03-02T04:03:02;90.93;;;55.57;;
17852;SDS011;9052;53.494;14.376;2024-03-02T04:05:31;119.37;;;58.87;;
17852;SDS011;9052;53.494;14.376;2024-03-02T04:07:58;99.70;;;58.77;;
17852;SDS011;9052;53.494;14.376;2024-03-02T04:10:26;107.00;;;57.73;;
17852;SDS011;9052;53.494;14.376;2024-03-02T04:12:53;90.00;;;53.50;;
17852;SDS011;9052;53.494;14.376;2024-03-02T04:15:20;100.60;;;54.20;;
17852;SDS011;9052;53.494;14.376;2024-03-02T04:17:48;103.70;;;53.60;;
17852;SDS011;9052;53.494;14.376;2024-03-02T04:20:15;85.87;;;52.90;;
17852;SDS011;9052;53.494;14.376;2024-03-02T04:22:44;102.17;;;55.00;;
17852;SDS011;9052;53.494;14.376;2024-03-02T04:25:11;99.43;;;55.00;;
17852;SDS011;9052;53.494;14.376;2024-03-02T04:27:38;88.73;;;57.10;;
17852;SDS011;9052;53.494;14.376;2024-03-02T04:30:05;88.13;;;54.40;;
17852;SDS011;9052;53.494;14.376;2024-03-02T04:32:33;90.07;;;53.57;;
17852;SDS011;9052;53.494;14.376;2024-03-02T04:35:01;84.17;;;50.80;;
17852;SDS011;9052;53.494;14.376;2024-03-02T04:37:28;102.93;;;54.27;;
17852;SDS011;9052;53.494;14.376;2024-03-02T04:39:57;99.53;;;52.77;;
17852;SDS011;9052;53.494;14.376;2024-03-02T04:42:24;89.27;;;51.83;;
17852;SDS011;9052;53.494;14.376;2024-03-02T04:44:51;93.10;;;53.57;;
17852;SDS011;9052;53.494;14.376;2024-03-02T04:47:18;91.13;;;52.43;;
17852;SDS011;9052;53.494;14.376;2024-03-02T04:49:45;87.13;;;52.83;;
17852;SDS011;9052;53.494;14.376;2024-03-02T04:52:12;86.10;;;54.27;;
17852;SDS011;9052;53.494;14.376;2024-03-02T04:54:39;83.47;;;50.60;;
17852;SDS011;9052;53.494;14.376;2024-03-02T04:57:21;94.80;;;55.03;;
17852;SDS011;9052;53.494;14.376;2024-03-02T04:59:48;84.23;;;53.50;;
17852;SDS011;9052;53.494;14.376;2024-03-02T05:02:15;97.97;;;56.77;;
17852;SDS011;9052;53.494;14.376;2024-03-02T05:04:42;96.93;;;54.30;;
17852;SDS011;9052;53.494;14.376;2024-03-02T05:07:09;90.00;;;53.20;;
17852;SDS011;9052;53.494;14.376;2024-03-02T05:09:36;110.53;;;53.07;;
17852;SDS011;9052;53.494;14.376;2024-03-02T05:12:03;97.93;;;57.00;;
17852;SDS011;9052;53.494;14.376;2024-03-02T05:14:55;95.53;;;54.07;;
17852;SDS011;9052;53.494;14.376;2024-03-02T05:17:22;81.67;;;55.40;;
17852;SDS011;9052;53.494;14.376;2024-03-02T05:19:49;87.87;;;55.20;;
17852;SDS011;9052;53.494;14.376;2024-03-02T05:22:16;85.53;;;53.90;;
17852;SDS011;9052;53.494;14.376;2024-03-02T05:24:43;90.97;;;54.47;;
17852;SDS011;9052;53.494;14.376;2024-03-02T05:27:10;87.97;;;54.30;;
17852;SDS011;9052;53.494;14.376;2024-03-02T05:29:37;89.90;;;55.60;;
17852;SDS011;9052;53.494;14.376;2024-03-02T05:32:06;90.27;;;55.57;;
17852;SDS011;9052;53.494;14.376;2024-03-02T05:34:33;97.47;;;55.73;;
17852;SDS011;9052;53.494;14.376;2024-03-02T05:37:01;81.90;;;52.80;;
17852;SDS011;9052;53.494;14.376;2024-03-02T05:39:28;112.97;;;59.70;;
17852;SDS011;9052;53.494;14.376;2024-03-02T05:41:55;117.07;;;63.20;;
17852;SDS011;9052;53.494;14.376;2024-03-02T05:44:22;114.93;;;61.07;;
17852;SDS011;9052;53.494;14.376;2024-03-02T05:46:49;104.93;;;63.37;;
17852;SDS011;9052;53.494;14.376;2024-03-02T05:49:17;116.90;;;64.17;;
17852;SDS011;9052;53.494;14.376;2024-03-02T05:51:44;108.37;;;62.03;;
17852;SDS011;9052;53.494;14.376;2024-03-02T05:54:11;110.87;;;64.03;;
17852;SDS011;9052;53.494;14.376;2024-03-02T05:56:38;117.47;;;64.40;;
17852;SDS011;9052;53.494;14.376;2024-03-02T05:59:06;112.73;;;63.27;;
17852;SDS011;9052;53.494;14.376;2024-03-02T06:01:38;101.23;;;62.20;;
17852;SDS011;9052;53.494;14.376;2024-03-02T06:04:06;114.60;;;64.90;;
17852;SDS011;9052;53.494;14.376;2024-03-02T06:06:34;109.50;;;66.20;;
17852;SDS011;9052;53.494;14.376;2024-03-02T06:09:01;129.77;;;67.40;;
17852;SDS011;9052;53.494;14.376;2024-03-02T06:11:30;110.77;;;64.70;;
17852;SDS011;9052;53.494;14.376;2024-03-02T06:13:57;118.87;;;65.77;;
17852;SDS011;9052;53.494;14.376;2024-03-02T06:16:24;125.13;;;66.00;;
17852;SDS011;9052;53.494;14.376;2024-03-02T06:18:51;110.73;;;63.60;;
17852;SDS011;9052;53.494;14.376;2024-03-02T06:21:19;117.90;;;63.20;;
17852;SDS011;9052;53.494;14.376;2024-03-02T06:23:47;121.43;;;64.90;;
17852;SDS011;9052;53.494;14.376;2024-03-02T06:26:14;132.70;;;68.03;;
17852;SDS011;9052;53.494;14.376;2024-03-02T06:28:41;119.33;;;64.70;;
17852;SDS011;9052;53.494;14.376;2024-03-02T06:31:09;109.00;;;65.80;;
17852;SDS011;9052;53.494;14.376;2024-03-02T06:33:36;125.13;;;66.77;;
17852;SDS011;9052;53.494;14.376;2024-03-02T06:36:03;123.40;;;69.30;;
17852;SDS011;9052;53.494;14.376;2024-03-02T06:38:33;133.00;;;69.50;;
17852;SDS011;9052;53.494;14.376;2024-03-02T06:41:02;125.77;;;70.13;;
17852;SDS011;9052;53.494;14.376;2024-03-02T06:43:29;127.90;;;69.30;;
17852;SDS011;9052;53.494;14.376;2024-03-02T06:45:56;140.67;;;66.80;;
17852;SDS011;9052;53.494;14.376;2024-03-02T06:48:23;131.87;;;68.20;;
17852;SDS011;9052;53.494;14.376;2024-03-02T06:50:50;133.47;;;66.40;;
17852;SDS011;9052;53.494;14.376;2024-03-02T06:53:17;142.37;;;71.67;;
17852;SDS011;9052;53.494;14.376;2024-03-02T06:55:44;132.30;;;69.07;;
17852;SDS011;9052;53.494;14.376;2024-03-02T06:58:13;121.00;;;71.63;;
17852;SDS011;9052;53.494;14.376;2024-03-02T07:00:41;144.43;;;73.30;;
17852;SDS011;9052;53.494;14.376;2024-03-02T07:03:09;128.73;;;69.17;;
17852;SDS011;9052;53.494;14.376;2024-03-02T07:05:36;134.23;;;72.27;;
17852;SDS011;9052;53.494;14.376;2024-03-02T07:08:03;136.63;;;74.93;;
17852;SDS011;9052;53.494;14.376;2024-03-02T07:10:32;145.03;;;74.50;;
17852;SDS011;9052;53.494;14.376;2024-03-02T07:12:59;138.83;;;76.50;;
17852;SDS011;9052;53.494;14.376;2024-03-02T07:15:28;152.87;;;72.43;;
17852;SDS011;9052;53.494;14.376;2024-03-02T07:18:09;129.53;;;73.37;;
17852;SDS011;9052;53.494;14.376;2024-03-02T07:20:36;140.63;;;72.77;;
17852;SDS011;9052;53.494;14.376;2024-03-02T07:23:04;146.07;;;78.90;;
17852;SDS011;9052;53.494;14.376;2024-03-02T07:25:32;153.57;;;79.73;;
17852;SDS011;9052;53.494;14.376;2024-03-02T07:27:59;148.30;;;77.13;;
17852;SDS011;9052;53.494;14.376;2024-03-02T07:30:27;140.10;;;76.10;;
17852;SDS011;9052;53.494;14.376;2024-03-02T07:32:54;132.47;;;73.97;;
17852;SDS011;9052;53.494;14.376;2024-03-02T07:35:21;127.13;;;75.67;;
17852;SDS011;9052;53.494;14.376;2024-03-02T07:37:52;141.97;;;77.27;;
17852;SDS011;9052;53.494;14.376;2024-03-02T07:40:19;135.50;;;72.47;;
17852;SDS011;9052;53.494;14.376;2024-03-02T07:42:46;147.50;;;73.10;;
17852;SDS011;9052;53.494;14.376;2024-03-02T07:45:13;124.53;;;71.17;;
17852;SDS011;9052;53.494;14.376;2024-03-02T07:47:42;128.80;;;67.20;;
17852;SDS011;9052;53.494;14.376;2024-03-02T07:50:10;146.13;;;76.77;;
17852;SDS011;9052;53.494;14.376;2024-03-02T07:52:37;133.57;;;74.10;;
17852;SDS011;9052;53.494;14.376;2024-03-02T07:55:04;147.50;;;77.33;;
17852;SDS011;9052;53.494;14.376;2024-03-02T07:57:32;133.90;;;79.63;;
17852;SDS011;9052;53.494;14.376;2024-03-02T07:59:59;145.70;;;78.77;;
17852;SDS011;9052;53.494;14.376;2024-03-02T08:02:26;147.43;;;71.60;;
17852;SDS011;9052;53.494;14.376;2024-03-02T08:04:54;138.50;;;79.80;;
17852;SDS011;9052;53.494;14.376;2024-03-02T08:07:21;151.00;;;76.23;;
17852;SDS011;9052;53.494;14.376;2024-03-02T08:09:48;162.63;;;76.80;;
17852;SDS011;9052;53.494;14.376;2024-03-02T08:12:15;155.80;;;81.53;;
17852;SDS011;9052;53.494;14.376;2024-03-02T08:14:44;153.43;;;83.20;;
17852;SDS011;9052;53.494;14.376;2024-03-02T08:17:11;169.87;;;89.77;;
17852;SDS011;9052;53.494;14.376;2024-03-02T08:19:38;160.27;;;86.90;;
17852;SDS011;9052;53.494;14.376;2024-03-02T08:22:07;149.87;;;78.27;;
17852;SDS011;9052;53.494;14.376;2024-03-02T08:24:34;159.07;;;83.43;;
17852;SDS011;9052;53.494;14.376;2024-03-02T08:27:02;161.47;;;81.83;;
17852;SDS011;9052;53.494;14.376;2024-03-02T08:29:30;168.30;;;84.30;;
17852;SDS011;9052;53.494;14.376;2024-03-02T08:31:57;156.30;;;82.53;;
17852;SDS011;9052;53.494;14.376;2024-03-02T08:34:24;165.50;;;87.77;;
17852;SDS011;9052;53.494;14.376;2024-03-02T08:36:51;164.17;;;84.90;;
17852;SDS011;9052;53.494;14.376;2024-03-02T08:39:20;175.77;;;84.63;;
17852;SDS011;9052;53.494;14.376;2024-03-02T08:41:47;170.37;;;88.07;;
17852;SDS011;9052;53.494;14.376;2024-03-02T08:44:14;169.37;;;90.20;;
17852;SDS011;9052;53.494;14.376;2024-03-02T08:46:42;167.67;;;87.60;;
17852;SDS011;9052;53.494;14.376;2024-03-02T08:49:09;173.03;;;91.93;;
17852;SDS011;9052;53.494;14.376;2024-03-02T08:51:37;157.07;;;86.47;;
17852;SDS011;9052;53.494;14.376;2024-03-02T08:54:04;174.13;;;87.97;;
17852;SDS011;9052;53.494;14.376;2024-03-02T08:56:32;172.80;;;88.50;;
17852;SDS011;9052;53.494;14.376;2024-03-02T08:58:59;183.23;;;85.27;;
17852;SDS011;9052;53.494;14.376;2024-03-02T09:01:26;197.37;;;92.47;;
17852;SDS011;9052;53.494;14.376;2024-03-02T09:03:53;176.73;;;93.17;;
17852;SDS011;9052;53.494;14.376;2024-03-02T09:06:20;177.27;;;92.43;;
17852;SDS011;9052;53.494;14.376;2024-03-02T09:08:47;160.60;;;84.83;;
17852;SDS011;9052;53.494;14.376;2024-03-02T09:11:17;164.73;;;90.93;;
17852;SDS011;9052;53.494;14.376;2024-03-02T09:13:46;175.10;;;91.80;;
17852;SDS011;9052;53.494;14.376;2024-03-02T09:16:13;187.87;;;87.93;;
17852;SDS011;9052;53.494;14.376;2024-03-02T09:18:40;175.37;;;88.77;;
17852;SDS011;9052;53.494;14.376;2024-03-02T09:21:07;151.17;;;88.97;;
17852;SDS011;9052;53.494;14.376;2024-03-02T09:23:34;146.63;;;85.47;;
17852;SDS011;9052;53.494;14.376;2024-03-02T09:26:01;151.03;;;82.57;;
17852;SDS011;9052;53.494;14.376;2024-03-02T09:28:28;159.07;;;81.43;;
17852;SDS011;9052;53.494;14.376;2024-03-02T09:30:57;151.00;;;83.30;;
17852;SDS011;9052;53.494;14.376;2024-03-02T09:33:24;173.07;;;86.10;;
17852;SDS011;9052;53.494;14.376;2024-03-02T09:35:52;176.70;;;84.43;;
17852;SDS011;9052;53.494;14.376;2024-03-02T09:38:19;159.80;;;86.07;;
17852;SDS011;9052;53.494;14.376;2024-03-02T09:40:47;155.30;;;83.43;;
17852;SDS011;9052;53.494;14.376;2024-03-02T09:43:14;159.73;;;86.20;;
17852;SDS011;9052;53.494;14.376;2024-03-02T09:45:41;145.57;;;78.33;;
17852;SDS011;9052;53.494;14.376;2024-03-02T09:48:09;173.27;;;83.07;;
17852;SDS011;9052;53.494;14.376;2024-03-02T09:50:36;164.93;;;81.10;;
17852;SDS011;9052;53.494;14.376;2024-03-02T09:53:04;138.20;;;75.80;;
17852;SDS011;9052;53.494;14.376;2024-03-02T09:55:31;130.10;;;77.77;;
17852;SDS011;9052;53.494;14.376;2024-03-02T09:57:58;142.67;;;77.40;;
17852;SDS011;9052;53.494;14.376;2024-03-02T10:00:25;134.30;;;78.30;;
17852;SDS011;9052;53.494;14.376;2024-03-02T10:02:52;146.10;;;74.17;;
17852;SDS011;9052;53.494;14.376;2024-03-02T10:05:24;137.27;;;72.30;;
17852;SDS011;9052;53.494;14.376;2024-03-02T10:08:00;124.60;;;71.20;;
17852;SDS011;9052;53.494;14.376;2024-03-02T10:10:34;129.60;;;67.63;;
17852;SDS011;9052;53.494;14.376;2024-03-02T10:13:05;115.13;;;68.43;;
17852;SDS011;9052;53.494;14.376;2024-03-02T10:15:33;139.20;;;67.90;;
17852;SDS011;9052;53.494;14.376;2024-03-02T10:18:01;112.43;;;67.53;;
17852;SDS011;9052;53.494;14.376;2024-03-02T10:20:30;109.53;;;61.57;;
17852;SDS011;9052;53.494;14.376;2024-03-02T10:23:09;114.93;;;61.37;;
17852;SDS011;9052;53.494;14.376;2024-03-02T10:25:37;100.07;;;58.13;;
17852;SDS011;9052;53.494;14.376;2024-03-02T10:28:05;100.60;;;59.10;;
17852;SDS011;9052;53.494;14.376;2024-03-02T10:30:32;78.57;;;54.47;;
17852;SDS011;9052;53.494;14.376;2024-03-02T10:33:00;107.90;;;56.07;;
17852;SDS011;9052;53.494;14.376;2024-03-02T10:35:29;90.40;;;52.10;;
17852;SDS011;9052;53.494;14.376;2024-03-02T10:37:58;79.83;;;51.13;;
17852;SDS011;9052;53.494;14.376;2024-03-02T10:40:26;71.67;;;48.67;;
17852;SDS011;9052;53.494;14.376;2024-03-02T10:42:53;72.60;;;47.77;;
17852;SDS011;9052;53.494;14.376;2024-03-02T10:45:20;76.47;;;49.97;;
17852;SDS011;9052;53.494;14.376;2024-03-02T10:47:48;74.80;;;47.50;;
17852;SDS011;9052;53.494;14.376;2024-03-02T10:50:17;90.53;;;50.03;;
17852;SDS011;9052;53.494;14.376;2024-03-02T10:52:54;86.87;;;48.87;;
17852;SDS011;9052;53.494;14.376;2024-03-02T10:57:54;64.87;;;44.53;;
17852;SDS011;9052;53.494;14.376;2024-03-02T11:00:23;71.53;;;45.27;;
17852;SDS011;9052;53.494;14.376;2024-03-02T11:02:55;72.97;;;43.63;;
17852;SDS011;9052;53.494;14.376;2024-03-02T11:05:26;62.33;;;40.07;;
17852;SDS011;9052;53.494;14.376;2024-03-02T11:08:00;58.20;;;39.30;;
17852;SDS011;9052;53.494;14.376;2024-03-02T11:10:32;55.03;;;37.90;;
17852;SDS011;9052;53.494;14.376;2024-03-02T11:13:02;57.40;;;41.07;;
17852;SDS011;9052;53.494;14.376;2024-03-02T11:15:32;70.80;;;38.80;;
17852;SDS011;9052;53.494;14.376;2024-03-02T11:18:03;64.83;;;42.27;;
17852;SDS011;9052;53.494;14.376;2024-03-02T11:20:34;66.60;;;43.57;;
17852;SDS011;9052;53.494;14.376;2024-03-02T11:23:07;72.17;;;42.53;;
17852;SDS011;9052;53.494;14.376;2024-03-02T11:25:36;60.83;;;41.03;;
17852;SDS011;9052;53.494;14.376;2024-03-02T11:28:05;69.53;;;42.53;;
17852;SDS011;9052;53.494;14.376;2024-03-02T11:30:50;63.97;;;41.10;;
17852;SDS011;9052;53.494;14.376;2024-03-02T11:33:28;63.73;;;43.30;;
17852;SDS011;9052;53.494;14.376;2024-03-02T11:35:56;59.07;;;40.33;;
17852;SDS011;9052;53.494;14.376;2024-03-02T11:38:28;55.70;;;36.70;;
17852;SDS011;9052;53.494;14.376;2024-03-02T11:40:57;64.93;;;40.80;;
17852;SDS011;9052;53.494;14.376;2024-03-02T11:43:27;53.73;;;39.10;;
17852;SDS011;9052;53.494;14.376;2024-03-02T11:45:58;63.80;;;39.03;;
17852;SDS011;9052;53.494;14.376;2024-03-02T11:48:26;50.67;;;37.90;;
17852;SDS011;9052;53.494;14.376;2024-03-02T11:50:54;62.73;;;37.10;;
17852;SDS011;9052;53.494;14.376;2024-03-02T11:53:24;59.13;;;37.40;;
17852;SDS011;9052;53.494;14.376;2024-03-02T11:55:56;57.27;;;37.63;;
17852;SDS011;9052;53.494;14.376;2024-03-02T11:58:30;55.67;;;36.50;;
17852;SDS011;9052;53.494;14.376;2024-03-02T12:00:58;52.13;;;36.40;;
17852;SDS011;9052;53.494;14.376;2024-03-02T12:03:25;53.40;;;36.37;;
17852;SDS011;9052;53.494;14.376;2024-03-02T12:05:54;48.87;;;34.20;;
17852;SDS011;9052;53.494;14.376;2024-03-02T12:08:22;57.10;;;37.47;;
17852;SDS011;9052;53.494;14.376;2024-03-02T12:10:59;63.40;;;39.97;;
17852;SDS011;9052;53.494;14.376;2024-03-02T12:13:31;55.30;;;37.80;;
17852;SDS011;9052;53.494;14.376;2024-03-02T12:15:59;64.03;;;39.80;;
17852;SDS011;9052;53.494;14.376;2024-03-02T12:18:31;63.43;;;39.80;;
17852;SDS011;9052;53.494;14.376;2024-03-02T12:20:58;56.40;;;39.40;;
17852;SDS011;9052;53.494;14.376;2024-03-02T12:23:27;54.37;;;39.40;;
17852;SDS011;9052;53.494;14.376;2024-03-02T12:25:55;56.77;;;35.70;;
17852;SDS011;9052;53.494;14.376;2024-03-02T12:28:26;65.70;;;39.00;;
17852;SDS011;9052;53.494;14.376;2024-03-02T12:30:53;57.60;;;39.20;;
17852;SDS011;9052;53.494;14.376;2024-03-02T12:33:20;65.13;;;39.83;;
17852;SDS011;9052;53.494;14.376;2024-03-02T12:35:49;61.37;;;40.10;;
17852;SDS011;9052;53.494;14.376;2024-03-02T12:38:16;71.63;;;40.77;;
17852;SDS011;9052;53.494;14.376;2024-03-02T12:40:44;66.60;;;41.30;;
17852;SDS011;9052;53.494;14.376;2024-03-02T12:43:14;70.47;;;43.33;;
17852;SDS011;9052;53.494;14.376;2024-03-02T12:45:42;70.17;;;42.47;;
17852;SDS011;9052;53.494;14.376;2024-03-02T12:48:10;76.47;;;42.07;;
17852;SDS011;9052;53.494;14.376;2024-03-02T12:50:39;67.00;;;42.83;;
17852;SDS011;9052;53.494;14.376;2024-03-02T12:53:07;68.53;;;39.53;;
17852;SDS011;9052;53.494;14.376;2024-03-02T12:55:40;76.70;;;46.00;;
17852;SDS011;9052;53.494;14.376;2024-03-02T12:58:16;63.20;;;40.57;;
17852;SDS011;9052;53.494;14.376;2024-03-02T13:00:45;63.20;;;42.67;;
17852;SDS011;9052;53.494;14.376;2024-03-02T13:03:13;72.57;;;43.43;;
17852;SDS011;9052;53.494;14.376;2024-03-02T13:05:41;63.73;;;40.70;;
17852;SDS011;9052;53.494;14.376;2024-03-02T13:08:08;69.97;;;46.20;;
17852;SDS011;9052;53.494;14.376;2024-03-02T13:10:35;72.07;;;42.27;;
17852;SDS011;9052;53.494;14.376;2024-03-02T13:13:02;72.30;;;41.60;;
17852;SDS011;9052;53.494;14.376;2024-03-02T13:15:30;70.07;;;43.17;;
17852;SDS011;9052;53.494;14.376;2024-03-02T13:18:01;76.17;;;44.63;;
17852;SDS011;9052;53.494;14.376;2024-03-02T13:20:30;77.50;;;44.10;;
17852;SDS011;9052;53.494;14.376;2024-03-02T13:22:58;74.77;;;44.20;;
17852;SDS011;9052;53.494;14.376;2024-03-02T13:25:25;85.43;;;46.90;;
17852;SDS011;9052;53.494;14.376;2024-03-02T13:27:52;79.10;;;48.87;;
17852;SDS011;9052;53.494;14.376;2024-03-02T13:30:20;76.17;;;44.90;;
17852;SDS011;9052;53.494;14.376;2024-03-02T13:32:48;80.60;;;46.00;;
17852;SDS011;9052;53.494;14.376;2024-03-02T13:35:16;82.83;;;44.57;;
17852;SDS011;9052;53.494;14.376;2024-03-02T13:37:43;80.33;;;44.53;;
17852;SDS011;9052;53.494;14.376;2024-03-02T13:40:10;70.40;;;42.93;;
17852;SDS011;9052;53.494;14.376;2024-03-02T13:42:43;73.53;;;42.10;;
17852;SDS011;9052;53.494;14.376;2024-03-02T13:45:10;79.30;;;45.83;;
17852;SDS011;9052;53.494;14.376;2024-03-02T13:47:38;69.93;;;41.37;;
17852;SDS011;9052;53.494;14.376;2024-03-02T13:50:06;68.90;;;41.50;;
17852;SDS011;9052;53.494;14.376;2024-03-02T13:52:35;67.70;;;42.30;;
17852;SDS011;9052;53.494;14.376;2024-03-02T13:55:02;84.77;;;40.83;;
17852;SDS011;9052;53.494;14.376;2024-03-02T13:57:29;71.10;;;43.43;;
17852;SDS011;9052;53.494;14.376;2024-03-02T13:59:57;70.93;;;42.27;;
17852;SDS011;9052;53.494;14.376;2024-03-02T14:02:24;68.40;;;41.53;;
17852;SDS011;9052;53.494;14.376;2024-03-02T14:04:51;69.37;;;39.20;;
17852;SDS011;9052;53.494;14.376;2024-03-02T14:07:18;69.33;;;39.77;;
17852;SDS011;9052;53.494;14.376;2024-03-02T14:09:47;68.27;;;41.00;;
17852;SDS011;9052;53.494;14.376;2024-03-02T14:12:14;75.30;;;43.17;;
17852;SDS011;9052;53.494;14.376;2024-03-02T14:14:41;69.40;;;40.73;;
17852;SDS011;9052;53.494;14.376;2024-03-02T14:17:08;68.53;;;39.17;;
17852;SDS011;9052;53.494;14.376;2024-03-02T14:19:39;61.13;;;37.13;;
17852;SDS011;9052;53.494;14.376;2024-03-02T14:22:07;61.60;;;36.30;;
17852;SDS011;9052;53.494;14.376;2024-03-02T14:24:34;60.63;;;35.50;;
17852;SDS011;9052;53.494;14.376;2024-03-02T14:27:02;62.10;;;34.40;;